createdAt,value
2022-12-29T00:00:14.922Z,11.10
2022-12-29T00:02:42.790Z,11.63
2022-12-29T00:05:10.738Z,12.40
2022-12-29T00:07:38.196Z,11.40
2022-12-29T00:10:06.376Z,12.10
2022-12-29T00:12:53.774Z,11.75
2022-12-29T00:15:39.502Z,11.40
2022-12-29T00:18:08.431Z,10.68
2022-12-29T00:21:03.788Z,11.48
2022-12-29T00:23:49.747Z,10.07
2022-12-29T00:26:36.679Z,11.27
2022-12-29T00:29:23.066Z,9.65
2022-12-29T00:32:09.041Z,10.32
2022-12-29T00:34:54.974Z,10.27
2022-12-29T00:37:42.643Z,11.35
2022-12-29T00:40:28.792Z,10.30
2022-12-29T00:43:14.787Z,10.43
2022-12-29T00:45:43.014Z,11.63
2022-12-29T00:48:10.461Z,12.40
2022-12-29T00:50:38.182Z,11.48
2022-12-29T00:53:05.635Z,10.85
2022-12-29T00:55:36.994Z,11.10
2022-12-29T00:58:04.539Z,10.57
2022-12-29T01:00:32.877Z,11.82
2022-12-29T01:03:00.602Z,12.00
2022-12-29T01:05:28.242Z,11.07
2022-12-29T01:07:56.224Z,11.00
2022-12-29T01:10:25.192Z,11.85
2022-12-29T01:12:53.959Z,11.82
2022-12-29T01:15:22.313Z,12.80
2022-12-29T01:17:49.911Z,12.52
2022-12-29T01:20:17.660Z,13.13
2022-12-29T01:22:45.973Z,12.02
2022-12-29T01:25:14.265Z,12.43
2022-12-29T01:27:41.915Z,12.43
2022-12-29T01:30:10.119Z,12.10
2022-12-29T01:32:37.553Z,11.30
2022-12-29T01:35:05.840Z,11.40
2022-12-29T01:37:35.839Z,11.68
2022-12-29T01:40:03.622Z,10.95
2022-12-29T01:42:32.900Z,10.73
2022-12-29T01:45:29.167Z,11.85
2022-12-29T01:50:34.429Z,10.35
2022-12-29T01:53:10.165Z,10.63
2022-12-29T01:55:45.694Z,9.88
2022-12-29T01:58:15.952Z,10.32
2022-12-29T02:00:43.588Z,10.07
2022-12-29T02:03:12.004Z,8.90
2022-12-29T02:05:53.903Z,9.27
2022-12-29T02:08:30.121Z,9.43
2022-12-29T02:10:59.198Z,9.38
2022-12-29T02:13:31.369Z,8.50
2022-12-29T02:16:20.753Z,9.60
2022-12-29T02:19:09.504Z,10.13
2022-12-29T02:22:02.771Z,9.13
2022-12-29T02:24:45.659Z,8.38
2022-12-29T02:27:31.424Z,9.35
2022-12-29T02:30:29.550Z,8.68
2022-12-29T02:33:42.075Z,7.53
2022-12-29T02:36:36.778Z,8.48
2022-12-29T02:39:10.128Z,8.75
2022-12-29T02:42:03.714Z,10.00
2022-12-29T02:44:52.349Z,9.55
2022-12-29T02:47:52.168Z,10.15
2022-12-29T02:50:32.827Z,10.93
2022-12-29T02:53:03.460Z,11.23
2022-12-29T02:55:31.046Z,11.57
2022-12-29T02:58:14.983Z,12.50
2022-12-29T03:00:58.810Z,12.07
2022-12-29T03:03:51.596Z,13.77
2022-12-29T03:06:50.678Z,11.80
2022-12-29T03:09:36.849Z,12.80
2022-12-29T03:12:49.232Z,12.55
2022-12-29T03:15:49.025Z,11.38
2022-12-29T03:18:24.062Z,12.43
2022-12-29T03:21:18.223Z,12.32
2022-12-29T03:23:53.494Z,12.32
2022-12-29T03:26:21.667Z,11.10
2022-12-29T03:28:54.263Z,10.95
2022-12-29T03:31:29.364Z,12.05
2022-12-29T03:33:57.941Z,11.75
2022-12-29T03:36:33.935Z,11.75
2022-12-29T03:39:09.536Z,11.05
2022-12-29T03:41:39.091Z,12.05
2022-12-29T03:44:08.896Z,12.43
2022-12-29T03:46:36.474Z,12.25
2022-12-29T03:49:04.610Z,11.85
2022-12-29T03:51:32.992Z,12.48
2022-12-29T03:54:00.616Z,11.32
2022-12-29T03:56:28.159Z,11.23
2022-12-29T03:58:55.708Z,11.32
2022-12-29T04:01:38.292Z,11.23
2022-12-29T04:04:05.984Z,12.02
2022-12-29T04:06:33.629Z,11.45
2022-12-29T04:09:05.653Z,11.27
2022-12-29T04:11:36.926Z,12.02
2022-12-29T04:14:05.282Z,11.38
2022-12-29T04:16:36.771Z,12.52
2022-12-29T04:19:06.771Z,12.45
2022-12-29T04:21:36.354Z,13.27
2022-12-29T04:24:07.480Z,12.27
2022-12-29T04:26:39.181Z,11.68
2022-12-29T04:29:35.758Z,11.52
2022-12-29T04:32:21.735Z,10.63
2022-12-29T04:34:51.516Z,11.05
2022-12-29T04:37:19.894Z,11.32
2022-12-29T04:39:47.874Z,12.52
2022-12-29T04:42:16.062Z,12.85
2022-12-29T04:44:45.424Z,11.70
2022-12-29T04:47:31.422Z,11.70
2022-12-29T04:50:21.931Z,11.68
2022-12-29T04:55:23.666Z,11.43
2022-12-29T04:57:51.376Z,12.27
2022-12-29T05:00:21.433Z,14.02
2022-12-29T05:02:49.022Z,12.35
2022-12-29T05:05:16.901Z,11.85
2022-12-29T05:07:48.510Z,11.43
2022-12-29T05:10:18.781Z,12.10
2022-12-29T05:12:47.081Z,13.15
2022-12-29T05:15:15.467Z,12.50
2022-12-29T05:17:44.051Z,12.93
2022-12-29T05:20:12.135Z,11.90
2022-12-29T05:22:39.655Z,12.07
2022-12-29T05:25:08.368Z,12.25
2022-12-29T05:27:46.677Z,12.05
2022-12-29T05:30:28.452Z,11.55
2022-12-29T05:32:55.940Z,12.02
2022-12-29T05:35:24.413Z,11.27
2022-12-29T05:37:52.198Z,11.70
2022-12-29T05:40:19.691Z,12.27
2022-12-29T05:42:47.252Z,11.70
2022-12-29T05:45:33.302Z,11.00
2022-12-29T05:48:38.267Z,11.70
2022-12-29T05:51:26.139Z,12.02
2022-12-29T05:53:55.149Z,10.85
2022-12-29T05:56:24.076Z,10.77
2022-12-29T05:58:57.403Z,10.70
2022-12-29T06:01:25.574Z,11.13
2022-12-29T06:03:53.441Z,10.75
2022-12-29T06:06:22.341Z,10.45
2022-12-29T06:08:49.963Z,9.75
2022-12-29T06:11:18.313Z,10.75
2022-12-29T06:13:53.727Z,11.90
2022-12-29T06:16:22.287Z,12.25
2022-12-29T06:18:52.745Z,10.55
2022-12-29T06:21:20.322Z,10.73
2022-12-29T06:23:48.191Z,11.95
2022-12-29T06:26:15.839Z,11.82
2022-12-29T06:28:44.629Z,12.30
2022-12-29T06:31:12.600Z,12.57
2022-12-29T06:33:40.909Z,13.30
2022-12-29T06:36:08.766Z,13.38
2022-12-29T06:38:36.395Z,13.35
2022-12-29T06:41:04.126Z,13.93
2022-12-29T06:43:50.037Z,13.68
2022-12-29T06:46:24.351Z,12.20
2022-12-29T06:48:55.033Z,12.45
2022-12-29T06:51:22.986Z,11.52
2022-12-29T06:53:50.566Z,12.02
2022-12-29T06:56:18.124Z,11.57
2022-12-29T06:58:45.643Z,11.02
2022-12-29T07:01:13.265Z,10.95
2022-12-29T07:03:43.741Z,11.02
2022-12-29T07:06:11.336Z,10.63
2022-12-29T07:08:39.594Z,11.23
2022-12-29T07:11:07.521Z,10.75
2022-12-29T07:13:34.992Z,10.63
2022-12-29T07:16:07.703Z,10.73
2022-12-29T07:18:35.671Z,10.80
2022-12-29T07:21:04.032Z,10.13
2022-12-29T07:23:31.969Z,11.38
2022-12-29T07:26:04.631Z,13.82
2022-12-29T07:28:33.332Z,11.60
2022-12-29T07:31:00.881Z,11.60
2022-12-29T07:33:32.370Z,10.45
2022-12-29T07:36:00.365Z,11.00
2022-12-29T07:38:28.132Z,11.43
2022-12-29T07:46:55.809Z,14.90
2022-12-29T07:49:24.628Z,18.27
2022-12-29T07:51:52.319Z,19.08
2022-12-29T07:54:20.696Z,21.52
2022-12-29T07:56:48.360Z,18.95
2022-12-29T07:59:15.938Z,20.08
2022-12-29T08:01:51.456Z,19.48
2022-12-29T08:04:19.476Z,17.75
2022-12-29T08:06:50.167Z,18.20
2022-12-29T08:09:24.261Z,17.52
2022-12-29T08:11:52.334Z,18.95
2022-12-29T08:14:19.969Z,14.23
2022-12-29T08:17:27.372Z,15.32
2022-12-29T08:19:55.050Z,13.23
2022-12-29T08:22:22.752Z,14.13
2022-12-29T08:24:50.852Z,13.48
2022-12-29T08:27:27.965Z,12.27
2022-12-29T08:29:56.428Z,13.40
2022-12-29T08:32:26.481Z,12.02
2022-12-29T08:34:54.137Z,12.93
2022-12-29T08:37:29.046Z,11.85
2022-12-29T08:40:09.930Z,12.40
2022-12-29T08:42:41.168Z,13.07
2022-12-29T08:45:10.034Z,11.98
2022-12-29T08:47:37.830Z,13.05
2022-12-29T08:50:05.878Z,14.10
2022-12-29T08:52:33.496Z,12.95
2022-12-29T08:55:01.043Z,13.02
2022-12-29T08:57:34.417Z,13.13
2022-12-29T09:00:16.130Z,11.90
2022-12-29T09:02:44.075Z,12.23
2022-12-29T09:05:14.767Z,14.65
2022-12-29T09:07:47.765Z,14.35
2022-12-29T09:10:17.937Z,15.43
2022-12-29T09:12:46.709Z,15.52
2022-12-29T09:15:19.779Z,16.70
2022-12-29T09:17:47.509Z,15.93
2022-12-29T09:20:17.926Z,17.17
2022-12-29T09:22:47.511Z,15.57
2022-12-29T09:25:16.738Z,16.50
2022-12-29T09:27:44.442Z,16.52
2022-12-29T09:30:17.011Z,15.88
2022-12-29T09:32:45.874Z,15.23
2022-12-29T09:35:18.077Z,15.93
2022-12-29T09:37:48.385Z,16.17
2022-12-29T09:40:37.800Z,15.82
2022-12-29T09:43:35.199Z,16.45
2022-12-29T09:46:07.214Z,16.50
2022-12-29T09:48:47.895Z,16.63
2022-12-29T09:51:24.885Z,16.23
2022-12-29T09:54:04.368Z,16.70
2022-12-29T09:56:37.352Z,17.88
2022-12-29T09:59:37.310Z,16.30
2022-12-29T10:02:35.677Z,14.32
2022-12-29T10:05:06.644Z,13.48
2022-12-29T10:08:01.694Z,14.93
2022-12-29T10:11:12.169Z,14.48
2022-12-29T10:14:21.379Z,15.25
2022-12-29T10:17:01.760Z,15.70
2022-12-29T10:20:03.575Z,16.42
2022-12-29T10:22:47.058Z,16.05
2022-12-29T10:25:27.126Z,16.77
2022-12-29T10:31:08.996Z,17.02
2022-12-29T10:34:02.605Z,16.45
2022-12-29T10:36:42.855Z,15.73
2022-12-29T10:39:35.297Z,15.88
2022-12-29T10:42:34.311Z,15.57
2022-12-29T10:45:01.990Z,16.88
2022-12-29T10:47:53.132Z,17.73
2022-12-29T10:50:41.004Z,18.35
2022-12-29T10:53:17.685Z,18.55
2022-12-29T10:56:48.937Z,19.60
2022-12-29T10:59:41.780Z,18.17
2022-12-29T11:02:29.194Z,18.85
2022-12-29T11:05:22.863Z,18.95
2022-12-29T11:08:03.063Z,19.25
2022-12-29T11:10:44.833Z,19.35
2022-12-29T11:13:21.461Z,19.07
2022-12-29T11:15:58.880Z,19.90
2022-12-29T11:21:32.187Z,19.77
2022-12-29T11:24:05.882Z,18.30
2022-12-29T11:26:35.433Z,19.27
2022-12-29T11:29:12.407Z,19.27
2022-12-29T11:32:03.945Z,20.40
2022-12-29T11:40:30.302Z,21.90
2022-12-29T11:43:11.607Z,21.70
2022-12-29T11:45:48.230Z,22.50
2022-12-29T11:48:26.088Z,21.35
2022-12-29T11:51:00.849Z,23.35
2022-12-29T11:53:48.180Z,22.67
2022-12-29T11:56:23.863Z,26.58
2022-12-29T11:58:54.465Z,25.95
2022-12-29T12:01:31.279Z,25.42
2022-12-29T12:04:02.137Z,25.85
2022-12-29T12:07:08.927Z,28.77
2022-12-29T12:10:07.769Z,27.27
2022-12-29T12:12:59.125Z,27.90
2022-12-29T12:15:48.230Z,28.13
2022-12-29T12:19:02.980Z,28.08
2022-12-29T12:21:45.713Z,28.58
2022-12-29T12:24:32.467Z,27.25
2022-12-29T12:27:47.620Z,27.58
2022-12-29T12:30:25.269Z,26.92
2022-12-29T12:33:26.904Z,27.70
2022-12-29T12:36:27.213Z,26.50
2022-12-29T12:39:18.312Z,28.13
2022-12-29T12:45:33.953Z,27.63
2022-12-29T12:48:37.998Z,29.65
2022-12-29T12:51:39.825Z,29.17
2022-12-29T12:54:34.288Z,30.08
2022-12-29T12:57:53.484Z,29.67
2022-12-29T13:01:03.494Z,28.65
2022-12-29T13:04:11.658Z,28.63
2022-12-29T13:07:06.428Z,30.42
2022-12-29T13:10:29.175Z,28.45
2022-12-29T13:13:10.599Z,29.65
2022-12-29T13:15:49.996Z,29.83
2022-12-29T13:19:04.227Z,30.02
2022-12-29T13:22:05.942Z,29.85
2022-12-29T13:25:15.159Z,27.48
2022-12-29T13:31:28.708Z,26.15
2022-12-29T13:34:21.744Z,28.20
2022-12-29T13:37:14.314Z,27.95
2022-12-29T13:39:58.342Z,28.15
2022-12-29T13:42:27.709Z,29.10
2022-12-29T13:45:26.524Z,29.35
2022-12-29T13:48:28.788Z,29.23
2022-12-29T13:51:03.535Z,27.90
2022-12-29T13:54:01.273Z,29.30
2022-12-29T13:56:52.380Z,28.60
2022-12-29T14:00:05.678Z,29.10
2022-12-29T14:03:29.872Z,28.50
2022-12-29T14:06:43.872Z,27.70
2022-12-29T14:09:54.886Z,28.10
2022-12-29T14:22:32.930Z,29.83
2022-12-29T14:25:01.679Z,29.75
2022-12-29T14:27:50.806Z,30.13
2022-12-29T14:34:11.647Z,31.58
2022-12-29T14:37:10.999Z,35.00
2022-12-29T14:40:05.090Z,37.25
2022-12-29T14:43:00.031Z,29.77
2022-12-29T14:45:52.082Z,31.88
2022-12-29T14:48:47.109Z,31.00
2022-12-29T14:51:24.321Z,30.02
2022-12-29T14:53:59.109Z,29.83
2022-12-29T14:56:46.925Z,30.30
2022-12-29T14:59:34.791Z,30.77
2022-12-29T15:15:27.708Z,33.03
2022-12-29T15:18:34.815Z,32.88
2022-12-29T15:21:27.699Z,31.20
2022-12-29T15:24:17.005Z,30.85
2022-12-29T15:26:50.321Z,31.15
2022-12-29T15:30:02.027Z,31.05
2022-12-29T15:32:50.039Z,31.08
2022-12-29T15:35:37.976Z,30.42
2022-12-29T16:56:53.714Z,34.70
2022-12-29T17:34:01.527Z,35.08
2022-12-29T17:40:50.312Z,34.35
2022-12-29T17:46:49.255Z,35.88
2022-12-29T17:50:04.350Z,34.93
2022-12-29T17:52:40.794Z,36.88
2022-12-29T17:55:44.431Z,35.78
2022-12-29T17:58:34.947Z,32.70
2022-12-29T18:01:21.218Z,32.78
2022-12-29T18:05:31.355Z,34.42
2022-12-29T18:20:50.261Z,36.40
2022-12-29T18:23:48.262Z,40.30
2022-12-29T18:29:20.619Z,36.17
2022-12-29T18:34:53.898Z,40.75
2022-12-29T18:37:24.882Z,39.28
2022-12-29T18:40:05.176Z,40.58
2022-12-29T18:42:41.548Z,38.13
2022-12-29T18:45:21.094Z,37.88
2022-12-29T18:48:18.416Z,35.63
2022-12-29T18:50:50.090Z,38.25
2022-12-29T18:53:26.348Z,37.20
2022-12-29T18:56:05.177Z,37.90
2022-12-29T18:58:39.435Z,36.00
2022-12-29T19:01:18.611Z,35.03
2022-12-29T19:03:50.127Z,36.38
2022-12-29T19:06:23.966Z,35.25
2022-12-29T19:08:51.751Z,34.17
2022-12-29T19:11:19.376Z,36.33
2022-12-29T19:13:49.532Z,35.08
2022-12-29T19:16:22.254Z,36.78
2022-12-29T19:19:07.990Z,38.30
2022-12-29T19:21:39.475Z,35.33
2022-12-29T19:24:07.841Z,37.65
2022-12-29T19:29:35.523Z,39.10
2022-12-29T19:32:05.315Z,40.30
2022-12-29T19:34:35.770Z,38.03
2022-12-29T19:37:04.281Z,37.42
2022-12-29T19:39:33.679Z,37.60
2022-12-29T19:42:05.838Z,34.22
2022-12-29T19:44:39.656Z,33.97
2022-12-29T19:47:09.819Z,35.53
2022-12-29T19:49:37.542Z,33.67
2022-12-29T19:52:05.165Z,32.25
2022-12-29T19:54:35.885Z,32.88
2022-12-29T19:57:13.354Z,32.22
2022-12-29T19:59:41.155Z,30.98
2022-12-29T20:02:20.180Z,32.28
2022-12-29T20:04:54.555Z,32.10
2022-12-29T20:07:23.492Z,33.80
2022-12-29T20:09:51.559Z,34.85
2022-12-29T20:12:27.301Z,32.40
2022-12-29T20:15:09.971Z,32.53
2022-12-29T20:20:28.956Z,35.80
2022-12-29T20:23:00.035Z,33.65
2022-12-29T20:25:50.917Z,35.35
2022-12-29T20:28:18.733Z,36.20
2022-12-29T20:31:05.243Z,34.83
2022-12-29T20:33:35.763Z,37.17
2022-12-29T20:36:12.523Z,36.55
2022-12-29T20:38:42.115Z,35.35
2022-12-29T20:41:12.371Z,36.63
2022-12-29T20:43:41.274Z,37.30
2022-12-29T20:46:32.828Z,37.45
2022-12-29T20:49:05.851Z,34.95
2022-12-29T20:52:04.527Z,33.38
2022-12-29T20:54:24.865Z,33.38
2022-12-29T20:57:03.777Z,32.60
2022-12-29T20:59:31.538Z,30.35
2022-12-29T21:01:59.442Z,33.13
2022-12-29T21:04:57.410Z,30.38
2022-12-29T21:07:25.935Z,29.52
2022-12-29T21:09:53.782Z,31.90
2022-12-29T21:12:21.572Z,29.60
2022-12-29T21:20:20.348Z,29.75
2022-12-29T21:22:49.541Z,31.42
2022-12-29T21:25:20.380Z,32.33
2022-12-29T21:27:48.561Z,33.30
2022-12-29T21:30:18.555Z,30.63
2022-12-29T21:32:51.901Z,31.08
2022-12-29T21:35:24.456Z,31.88
2022-12-29T21:37:52.903Z,30.02
2022-12-29T21:40:23.253Z,31.10
2022-12-29T21:42:51.790Z,30.00
2022-12-29T21:45:25.401Z,30.25
2022-12-29T21:48:17.159Z,32.00
2022-12-29T21:51:14.198Z,31.45
2022-12-29T21:53:45.856Z,30.67
2022-12-29T21:56:23.460Z,34.15
2022-12-29T22:02:45.339Z,30.15
2022-12-29T22:05:33.691Z,30.92
2022-12-29T22:08:24.251Z,30.52
2022-12-29T22:11:10.224Z,31.10
2022-12-29T22:13:39.661Z,31.75
2022-12-29T22:16:10.945Z,29.88
2022-12-29T22:18:45.938Z,31.23
2022-12-29T22:21:43.316Z,33.50
2022-12-29T22:24:34.053Z,32.00
2022-12-29T22:27:08.179Z,31.30
2022-12-29T22:29:36.194Z,31.40
2022-12-29T22:32:06.615Z,30.40
2022-12-29T22:34:34.361Z,30.30
2022-12-29T22:37:04.571Z,29.38
2022-12-29T22:39:41.450Z,30.15
2022-12-29T22:42:09.403Z,29.50
2022-12-29T22:44:37.219Z,29.77
2022-12-29T22:47:09.253Z,28.05
2022-12-29T22:49:37.096Z,28.55
2022-12-29T22:52:04.813Z,28.40
2022-12-29T22:54:37.332Z,27.88
2022-12-29T22:57:08.127Z,27.40
2022-12-29T22:59:35.697Z,28.83
2022-12-29T23:02:04.377Z,27.30
2022-12-29T23:05:02.376Z,28.50
2022-12-29T23:07:25.384Z,29.10
2022-12-29T23:09:52.869Z,28.92
2022-12-29T23:12:20.357Z,29.63
2022-12-29T23:14:54.786Z,27.58
2022-12-29T23:17:25.916Z,27.85
2022-12-29T23:20:09.463Z,28.58
2022-12-29T23:22:44.573Z,30.02
2022-12-29T23:25:14.848Z,28.23
2022-12-29T23:27:51.255Z,29.75
2022-12-29T23:30:22.011Z,27.13
2022-12-29T23:32:55.734Z,28.77
2022-12-29T23:35:23.346Z,27.10
2022-12-29T23:37:54.259Z,27.25
2022-12-29T23:40:22.561Z,27.13
2022-12-29T23:42:54.428Z,27.45
2022-12-29T23:45:23.596Z,25.75
2022-12-29T23:47:54.254Z,27.73
2022-12-29T23:50:21.877Z,25.30
2022-12-29T23:52:54.979Z,25.95
2022-12-29T23:55:23.034Z,27.48
2022-12-29T23:57:50.473Z,27.60
